createdAt,value
2022-08-19T00:01:41.688Z,101513.19
2022-08-19T00:04:12.548Z,101524.63
2022-08-19T00:06:40.911Z,101519.13
2022-08-19T00:09:10.168Z,101510.13
2022-08-19T00:11:38.040Z,101521.56
2022-08-19T00:14:07.039Z,101525.91
2022-08-19T00:16:33.985Z,101527.06
2022-08-19T00:19:00.701Z,101529.84
2022-08-19T00:21:27.887Z,101520.44
2022-08-19T00:23:56.230Z,101525.22
2022-08-19T00:26:22.691Z,101523.72
2022-08-19T00:28:49.170Z,101524.91
2022-08-19T00:31:16.512Z,101517.50
2022-08-19T00:33:43.866Z,101519.88
2022-08-19T00:36:10.843Z,101517.91
2022-08-19T00:38:40.205Z,101521.78
2022-08-19T00:41:07.101Z,101515.91
2022-08-19T00:43:34.057Z,101511.66
2022-08-19T00:46:00.972Z,101515.69
2022-08-19T00:48:27.678Z,101518.84
2022-08-19T00:50:55.219Z,101514.19
2022-08-19T00:53:25.087Z,101517.31
2022-08-19T00:55:55.525Z,101509.81
2022-08-19T00:58:25.511Z,101521.25
2022-08-19T01:00:52.012Z,101514.59
2022-08-19T01:03:20.786Z,101512.69
2022-08-19T01:05:49.754Z,101509.16
2022-08-19T01:08:18.376Z,101517.41
2022-08-19T01:10:49.097Z,101510.34
2022-08-19T01:13:20.045Z,101516.69
2022-08-19T01:15:51.253Z,101512.38
2022-08-19T01:18:20.074Z,101509.72
2022-08-19T01:20:47.550Z,101513.75
2022-08-19T01:23:15.803Z,101511.38
2022-08-19T01:25:50.852Z,101509.06
2022-08-19T01:28:37.168Z,101509.88
2022-08-19T01:31:27.280Z,101505.59
2022-08-19T01:33:56.946Z,101504.03
2022-08-19T01:36:29.226Z,101509.97
2022-08-19T01:38:55.884Z,101515.09
2022-08-19T01:41:24.354Z,101506.88
2022-08-19T01:44:13.285Z,101516.34
2022-08-19T01:46:39.043Z,101514.78
2022-08-19T01:49:08.942Z,101504.59
2022-08-19T01:51:39.861Z,101510.94
2022-08-19T01:54:08.043Z,101505.09
2022-08-19T01:56:34.529Z,101507.09
2022-08-19T01:59:05.868Z,101516.16
2022-08-19T02:01:33.397Z,101514.63
2022-08-19T02:04:02.671Z,101507.53
2022-08-19T02:06:30.139Z,101521.31
2022-08-19T02:08:57.267Z,101514.25
2022-08-19T02:11:28.879Z,101515.88
2022-08-19T02:13:56.424Z,101519.44
2022-08-19T02:16:23.273Z,101512.78
2022-08-19T02:18:50.278Z,101520.28
2022-08-19T02:21:20.714Z,101526.19
2022-08-19T02:23:47.354Z,101516.38
2022-08-19T02:26:14.010Z,101523.06
2022-08-19T02:28:42.338Z,101522.72
2022-08-19T02:31:11.532Z,101525.88
2022-08-19T02:33:38.128Z,101525.50
2022-08-19T02:36:06.157Z,101527.47
2022-08-19T02:38:33.318Z,101533.34
2022-08-19T02:41:02.960Z,101538.53
2022-08-19T02:43:33.894Z,101538.94
2022-08-19T02:46:01.626Z,101546.78
2022-08-19T02:48:28.092Z,101554.25
2022-08-19T02:50:56.426Z,101537.81
2022-08-19T02:53:25.482Z,101529.63
2022-08-19T02:55:52.733Z,101534.41
2022-08-19T02:58:20.288Z,101532.06
2022-08-19T03:00:50.199Z,101535.63
2022-08-19T03:03:17.973Z,101538.00
2022-08-19T03:05:48.161Z,101541.53
2022-08-19T03:08:22.814Z,101543.50
2022-08-19T03:10:49.473Z,101536.44
2022-08-19T03:13:18.826Z,101528.59
2022-08-19T03:15:47.713Z,101534.09
2022-08-19T03:18:15.697Z,101523.53
2022-08-19T03:20:46.566Z,101528.25
2022-08-19T03:23:13.724Z,101520.41
2022-08-19T03:25:44.112Z,101520.81
2022-08-19T03:28:13.340Z,101517.75
2022-08-19T03:30:43.538Z,101512.28
2022-08-19T03:33:17.945Z,101508.31
2022-08-19T03:35:46.026Z,101520.50
2022-08-19T03:38:12.570Z,101517.38
2022-08-19T03:40:39.011Z,101519.31
2022-08-19T03:43:06.422Z,101518.53
2022-08-19T03:45:32.896Z,101523.25
2022-08-19T03:47:59.453Z,101526.41
2022-08-19T03:50:26.170Z,101520.16
2022-08-19T03:52:52.912Z,101517.06
2022-08-19T03:55:19.703Z,101519.78
2022-08-19T03:57:47.034Z,101516.66
2022-08-19T04:00:14.235Z,101510.78
2022-08-19T04:02:42.799Z,101511.97
2022-08-19T04:05:27.567Z,101512.38
2022-08-19T04:07:54.905Z,101523.34
2022-08-19T04:10:21.486Z,101521.75
2022-08-19T04:12:47.942Z,101509.97
2022-08-19T04:15:16.280Z,101509.22
2022-08-19T04:17:42.831Z,101497.50
2022-08-19T04:20:09.498Z,101499.88
2022-08-19T04:22:35.958Z,101504.63
2022-08-19T04:25:02.545Z,101509.38
2022-08-19T04:27:29.257Z,101501.56
2022-08-19T04:29:56.107Z,101507.06
2022-08-19T04:32:23.825Z,101514.53
2022-08-19T04:35:01.317Z,101511.00
2022-08-19T04:37:36.830Z,101511.78
2022-08-19T04:40:24.866Z,101511.81
2022-08-19T04:42:51.397Z,101516.56
2022-08-19T04:45:17.942Z,101500.88
2022-08-19T04:47:48.188Z,101497.31
2022-08-19T04:50:24.164Z,101495.31
2022-08-19T04:52:53.820Z,101501.97
2022-08-19T04:55:20.505Z,101496.91
2022-08-19T04:57:47.013Z,101509.44
2022-08-19T05:00:13.823Z,101497.31
2022-08-19T05:02:41.562Z,101515.72
2022-08-19T05:05:08.930Z,101510.59
2022-08-19T05:07:35.654Z,101519.63
2022-08-19T05:10:03.448Z,101517.69
2022-08-19T05:12:30.993Z,101524.78
2022-08-19T05:14:59.682Z,101529.91
2022-08-19T05:17:29.641Z,101523.22
2022-08-19T05:20:16.374Z,101532.19
2022-08-19T05:22:46.555Z,101527.06
2022-08-19T05:25:19.416Z,101528.28
2022-08-19T05:27:45.991Z,101522.38
2022-08-19T05:30:12.874Z,101521.94
2022-08-19T05:32:40.558Z,101528.56
2022-08-19T05:35:07.669Z,101525.81
2022-08-19T05:37:34.140Z,101523.06
2022-08-19T05:40:00.824Z,101528.09
2022-08-19T05:42:27.439Z,101530.38
2022-08-19T05:44:54.482Z,101527.63
2022-08-19T05:47:21.331Z,101529.97
2022-08-19T05:49:51.693Z,101533.03
2022-08-19T05:52:19.388Z,101534.56
2022-08-19T05:54:51.189Z,101532.53
2022-08-19T05:57:20.496Z,101519.56
2022-08-19T05:59:49.226Z,101519.53
2022-08-19T06:02:15.933Z,101520.28
2022-08-19T06:04:43.775Z,101524.56
2022-08-19T06:07:12.562Z,101533.88
2022-08-19T06:09:41.004Z,101544.03
2022-08-19T06:12:10.255Z,101536.88
2022-08-19T06:14:37.546Z,101529.03
2022-08-19T06:17:07.591Z,101531.31
2022-08-19T06:19:34.389Z,101536.00
2022-08-19T06:23:25.623Z,101528.84
2022-08-19T06:25:52.233Z,101529.88
2022-08-19T06:31:46.102Z,101531.47
2022-08-19T06:34:13.564Z,101525.41
2022-08-19T06:36:44.607Z,101532.75
2022-08-19T06:39:14.991Z,101532.56
2022-08-19T06:41:49.299Z,101536.34
2022-08-19T06:44:20.421Z,101525.59
2022-08-19T06:46:54.890Z,101534.94
2022-08-19T06:49:22.778Z,101541.16
2022-08-19T06:51:50.380Z,101541.13
2022-08-19T06:54:20.423Z,101538.38
2022-08-19T06:56:47.599Z,101543.75
2022-08-19T06:59:18.665Z,101535.41
2022-08-19T07:01:48.525Z,101532.59
2022-08-19T07:04:19.609Z,101542.34
2022-08-19T07:06:55.108Z,101540.44
2022-08-19T07:09:22.186Z,101537.69
2022-08-19T07:11:51.945Z,101548.22
2022-08-19T07:14:22.148Z,101548.16
2022-08-19T07:16:51.149Z,101543.84
2022-08-19T07:19:19.191Z,101559.25
2022-08-19T07:21:49.618Z,101567.16
2022-08-19T07:24:18.215Z,101558.03
2022-08-19T07:26:45.063Z,101554.88
2022-08-19T07:29:12.240Z,101552.78
2022-08-19T07:31:40.232Z,101553.41
2022-08-19T07:34:12.773Z,101551.41
2022-08-19T07:36:42.990Z,101557.28
2022-08-19T07:39:14.413Z,101563.53
2022-08-19T07:41:41.333Z,101557.16
2022-08-19T07:44:09.180Z,101555.03
2022-08-19T07:46:38.811Z,101557.31
2022-08-19T07:49:07.235Z,101568.69
2022-08-19T07:51:36.215Z,101565.00
2022-08-19T07:54:04.575Z,101557.38
2022-08-19T07:56:31.458Z,101563.63
2022-08-19T07:58:58.190Z,101565.97
2022-08-19T08:01:27.515Z,101581.66
2022-08-19T08:04:16.038Z,101572.25
2022-08-19T08:07:01.880Z,101568.66
2022-08-19T08:09:32.922Z,101581.19
2022-08-19T08:12:17.993Z,101584.19
2022-08-19T08:14:56.001Z,101587.72
2022-08-19T08:17:42.399Z,101595.44
2022-08-19T08:20:13.212Z,101593.38
2022-08-19T08:23:02.710Z,101597.22
2022-08-19T08:25:32.449Z,101593.59
2022-08-19T08:28:01.297Z,101597.56
2022-08-19T08:30:31.279Z,101605.69
2022-08-19T08:32:59.548Z,101605.13
2022-08-19T08:35:26.363Z,101605.72
2022-08-19T08:37:55.431Z,101616.19
2022-08-19T08:40:29.008Z,101614.44
2022-08-19T08:43:06.058Z,101616.16
2022-08-19T08:45:46.356Z,101619.00
2022-08-19T08:48:32.215Z,101614.69
2022-08-19T08:51:02.430Z,101613.38
2022-08-19T08:53:35.677Z,101619.97
2022-08-19T08:56:09.416Z,101609.78
2022-08-19T08:58:52.556Z,101612.19
2022-08-19T09:01:21.611Z,101613.03
2022-08-19T09:03:48.821Z,101610.00
2022-08-19T09:06:32.181Z,101605.16
2022-08-19T09:09:14.829Z,101605.91
2022-08-19T09:11:57.631Z,101615.09
2022-08-19T09:14:49.331Z,101618.91
2022-08-19T09:17:15.993Z,101619.94
2022-08-19T09:19:54.335Z,101617.84
2022-08-19T09:22:25.724Z,101619.75
2022-08-19T09:24:53.355Z,101620.00
2022-08-19T09:27:21.846Z,101626.09
2022-08-19T09:29:49.956Z,101613.28
2022-08-19T09:32:26.625Z,101617.50
2022-08-19T09:34:55.682Z,101620.88
2022-08-19T09:37:23.342Z,101620.88
2022-08-19T09:39:51.707Z,101620.31
2022-08-19T09:42:30.466Z,101627.44
2022-08-19T09:45:02.264Z,101634.50
2022-08-19T09:47:31.737Z,101616.34
2022-08-19T09:49:58.964Z,101620.22
2022-08-19T09:52:25.899Z,101621.91
2022-08-19T09:54:59.850Z,101616.41
2022-08-19T09:57:26.417Z,101618.41
2022-08-19T09:59:53.877Z,101621.97
2022-08-19T10:02:22.337Z,101630.53
2022-08-19T10:05:07.487Z,101623.75
2022-08-19T10:07:36.462Z,101612.34
2022-08-19T10:10:06.393Z,101621.22
2022-08-19T10:12:34.984Z,101621.22
2022-08-19T10:15:02.486Z,101624.88
2022-08-19T10:17:33.457Z,101623.09
2022-08-19T10:20:00.963Z,101625.63
2022-08-19T10:22:27.665Z,101618.09
2022-08-19T10:24:54.742Z,101616.44
2022-08-19T10:27:21.613Z,101608.06
2022-08-19T10:29:48.830Z,101612.25
2022-08-19T10:32:15.794Z,101609.88
2022-08-19T10:34:48.179Z,101610.91
2022-08-19T10:37:23.446Z,101620.00
2022-08-19T10:39:50.942Z,101617.66
2022-08-19T10:42:19.447Z,101611.34
2022-08-19T10:44:47.596Z,101609.34
2022-08-19T10:47:17.930Z,101605.53
2022-08-19T10:50:12.534Z,101606.72
2022-08-19T10:52:49.973Z,101607.22
2022-08-19T10:55:39.690Z,101608.66
2022-08-19T10:58:12.018Z,101604.34
2022-08-19T11:00:38.602Z,101600.44
2022-08-19T11:03:05.107Z,101604.00
2022-08-19T11:05:31.725Z,101594.31
2022-08-19T11:08:23.206Z,101593.38
2022-08-19T11:10:54.599Z,101594.56
2022-08-19T11:13:21.399Z,101606.34
2022-08-19T11:15:48.512Z,101597.44
2022-08-19T11:18:15.161Z,101589.66
2022-08-19T11:20:41.703Z,101586.69
2022-08-19T11:23:08.630Z,101585.38
2022-08-19T11:25:36.215Z,101590.03
2022-08-19T11:28:02.887Z,101588.22
2022-08-19T11:30:29.430Z,101581.69
2022-08-19T11:32:56.004Z,101587.56
2022-08-19T11:35:25.295Z,101581.38
2022-08-19T11:37:51.827Z,101570.91
2022-08-19T11:40:18.496Z,101577.75
2022-08-19T11:42:57.476Z,101573.59
2022-08-19T11:45:25.695Z,101578.56
2022-08-19T11:47:52.295Z,101571.16
2022-08-19T11:50:19.667Z,101580.75
2022-08-19T11:52:47.013Z,101576.28
2022-08-19T11:55:14.656Z,101580.63
2022-08-19T11:57:43.125Z,101577.84
2022-08-19T12:00:12.301Z,101575.69
2022-08-19T12:02:38.777Z,101574.19
2022-08-19T12:05:11.504Z,101576.34
2022-08-19T12:07:39.035Z,101571.69
2022-08-19T12:10:05.821Z,101574.59
2022-08-19T12:12:32.395Z,101571.78
2022-08-19T12:14:59.424Z,101587.47
2022-08-19T12:17:27.761Z,101597.19
2022-08-19T12:19:54.692Z,101595.75
2022-08-19T12:22:21.715Z,101588.59
2022-08-19T12:24:49.557Z,101593.19
2022-08-19T12:27:32.030Z,101587.03
2022-08-19T12:30:04.963Z,101587.28
2022-08-19T12:32:31.543Z,101587.75
2022-08-19T12:34:58.287Z,101589.88
2022-08-19T12:37:24.983Z,101591.09
2022-08-19T12:39:52.081Z,101591.47
2022-08-19T12:42:18.847Z,101590.94
2022-08-19T12:44:46.396Z,101591.88
2022-08-19T12:47:16.762Z,101598.97
2022-08-19T12:49:54.182Z,101590.31
2022-08-19T12:52:23.940Z,101586.31
2022-08-19T12:54:54.332Z,101585.72
2022-08-19T12:57:22.181Z,101587.66
2022-08-19T13:26:48.986Z,101584.81
2022-08-19T13:29:34.168Z,101589.53
2022-08-19T13:32:19.625Z,101578.81
2022-08-19T13:34:47.678Z,101577.63
2022-08-19T13:37:14.296Z,101582.78
2022-08-19T13:39:41.314Z,101567.16
2022-08-19T13:42:10.163Z,101579.34
2022-08-19T13:44:36.764Z,101577.66
2022-08-19T13:50:09.240Z,101564.81
2022-08-19T14:00:52.405Z,101589.59
2022-08-19T14:03:19.148Z,101583.19
2022-08-19T14:05:47.006Z,101580.53
2022-08-19T14:08:46.041Z,101588.16
2022-08-19T14:11:15.892Z,101578.22
2022-08-19T14:14:16.417Z,101585.63
2022-08-19T14:17:08.633Z,101585.41
2022-08-19T14:19:38.106Z,101585.97
2022-08-19T14:22:07.437Z,101580.66
2022-08-19T14:24:35.424Z,101587.84
2022-08-19T14:27:02.623Z,101597.19
2022-08-19T14:29:31.515Z,101587.19
2022-08-19T14:31:59.896Z,101582.75
2022-08-19T14:34:27.593Z,101583.75
2022-08-19T14:36:56.652Z,101584.16
2022-08-19T14:39:23.230Z,101581.63
2022-08-19T14:41:49.846Z,101581.72
2022-08-19T14:44:17.109Z,101583.59
2022-08-19T14:46:49.254Z,101582.38
2022-08-19T14:49:19.198Z,101582.81
2022-08-19T14:51:47.890Z,101579.16
2022-08-19T14:54:14.870Z,101576.28
2022-08-19T14:56:42.559Z,101568.75
2022-08-19T14:59:09.409Z,101570.31
2022-08-19T15:01:37.255Z,101562.69
2022-08-19T15:04:04.046Z,101563.81
2022-08-19T15:06:32.403Z,101568.44
2022-08-19T15:09:04.027Z,101570.22
2022-08-19T15:11:33.286Z,101562.16
2022-08-19T15:14:00.856Z,101560.00
2022-08-19T15:16:28.087Z,101560.91
2022-08-19T15:19:54.764Z,101556.28
2022-08-19T15:22:26.897Z,101556.28
2022-08-19T15:25:11.598Z,101556.13
2022-08-19T15:27:41.758Z,101550.25
2022-08-19T15:30:12.102Z,101557.56
2022-08-19T15:32:39.880Z,101556.56
2022-08-19T15:35:10.867Z,101559.56
2022-08-19T15:37:38.084Z,101561.53
2022-08-19T15:40:07.498Z,101571.84
2022-08-19T15:42:36.647Z,101572.19
2022-08-19T15:48:06.458Z,101578.41
2022-08-19T15:53:20.751Z,101574.72
2022-08-19T15:55:48.489Z,101571.94
2022-08-19T15:58:34.192Z,101581.94
2022-08-19T16:01:23.679Z,101572.84
2022-08-19T16:04:14.494Z,101570.53
2022-08-19T16:06:46.615Z,101569.84
2022-08-19T16:09:13.677Z,101571.66
2022-08-19T16:11:45.637Z,101571.66
2022-08-19T16:14:13.250Z,101577.63
2022-08-19T16:16:41.177Z,101576.06
2022-08-19T16:19:10.351Z,101585.63
2022-08-19T16:21:44.651Z,101580.53
2022-08-19T16:24:38.490Z,101580.97
2022-08-19T16:29:50.333Z,101575.78
2022-08-19T16:32:17.116Z,101576.75
2022-08-19T16:34:45.272Z,101575.88
2022-08-19T16:37:12.889Z,101577.06
2022-08-19T16:39:40.194Z,101578.63
2022-08-19T16:42:13.404Z,101579.94
2022-08-19T16:44:45.026Z,101572.94
2022-08-19T16:47:14.527Z,101572.03
2022-08-19T16:49:54.368Z,101575.47
2022-08-19T16:52:27.049Z,101579.69
2022-08-19T16:54:54.152Z,101586.13
2022-08-19T16:57:23.733Z,101578.91
2022-08-19T16:59:52.265Z,101577.47
2022-08-19T17:02:22.083Z,101578.81
2022-08-19T17:04:58.645Z,101576.81
2022-08-19T17:07:27.435Z,101577.25
2022-08-19T17:09:53.974Z,101583.38
2022-08-19T17:12:30.649Z,101576.72
2022-08-19T17:15:01.481Z,101575.28
2022-08-19T17:17:30.435Z,101579.16
2022-08-19T17:19:59.231Z,101571.28
2022-08-19T17:22:26.118Z,101575.72
2022-08-19T17:24:54.051Z,101569.66
2022-08-19T17:27:24.514Z,101575.06
2022-08-19T17:29:51.173Z,101574.84
2022-08-19T17:32:24.691Z,101570.84
2022-08-19T17:34:51.814Z,101577.50
2022-08-19T17:37:18.850Z,101572.53
2022-08-19T17:39:45.431Z,101578.63
2022-08-19T17:42:12.302Z,101580.94
2022-08-19T17:44:40.285Z,101575.72
2022-08-19T17:47:06.877Z,101583.09
2022-08-19T17:49:35.144Z,101586.63
2022-08-19T17:52:01.738Z,101583.84
2022-08-19T17:54:33.637Z,101584.41
2022-08-19T17:57:01.243Z,101589.31
2022-08-19T17:59:29.966Z,101589.84
2022-08-19T18:01:57.251Z,101599.25
2022-08-19T18:04:25.528Z,101596.63
2022-08-19T18:06:55.159Z,101596.63
2022-08-19T18:09:25.192Z,101601.81
2022-08-19T18:11:53.823Z,101605.81
2022-08-19T18:14:32.246Z,101611.81
2022-08-19T18:17:06.110Z,101617.47
2022-08-19T18:19:41.352Z,101608.59
2022-08-19T18:22:08.995Z,101629.31
2022-08-19T18:24:40.926Z,101617.91
2022-08-19T18:27:07.460Z,101616.56
2022-08-19T18:29:37.401Z,101616.50
2022-08-19T18:32:06.079Z,101626.03
2022-08-19T18:34:36.673Z,101624.44
2022-08-19T18:37:03.254Z,101625.09
2022-08-19T18:39:48.439Z,101632.72
2022-08-19T18:42:34.626Z,101623.63
2022-08-19T18:45:19.911Z,101625.19
2022-08-19T18:48:04.984Z,101633.94
2022-08-19T18:50:32.024Z,101636.81
2022-08-19T18:52:58.495Z,101640.88
2022-08-19T18:55:26.806Z,101648.06
2022-08-19T18:57:53.488Z,101648.50
2022-08-19T19:00:20.912Z,101648.06
2022-08-19T19:02:47.415Z,101649.38
2022-08-19T19:05:14.841Z,101653.00
2022-08-19T19:07:41.960Z,101664.09
2022-08-19T19:10:09.038Z,101661.44
2022-08-19T19:12:40.282Z,101662.28
2022-08-19T19:15:07.174Z,101665.16
2022-08-19T19:17:33.880Z,101671.13
2022-08-19T19:20:00.445Z,101670.00
2022-08-19T19:22:26.926Z,101666.13
2022-08-19T19:24:55.241Z,101672.84
2022-08-19T19:27:21.745Z,101674.91
2022-08-19T19:29:52.065Z,101671.13
2022-08-19T19:32:24.405Z,101683.50
2022-08-19T19:34:50.998Z,101677.59
2022-08-19T19:37:18.457Z,101678.03
2022-08-19T19:39:46.900Z,101681.31
2022-08-19T19:42:20.081Z,101685.81
2022-08-19T19:44:50.143Z,101683.91
2022-08-19T19:47:18.691Z,101678.47
2022-08-19T19:50:12.536Z,101679.75
2022-08-19T19:52:33.655Z,101684.94
2022-08-19T19:55:01.511Z,101685.13
2022-08-19T19:57:30.385Z,101673.72
2022-08-19T19:59:56.962Z,101675.69
2022-08-19T20:02:25.237Z,101677.25
2022-08-19T20:04:52.578Z,101675.59
2022-08-19T20:07:40.297Z,101685.13
2022-08-19T20:10:07.095Z,101682.00
2022-08-19T20:12:34.303Z,101683.66
2022-08-19T20:15:00.731Z,101686.06
2022-08-19T20:17:27.384Z,101688.47
2022-08-19T20:19:54.206Z,101691.25
2022-08-19T20:22:22.006Z,101698.75
2022-08-19T20:24:48.557Z,101696.00
2022-08-19T20:27:15.081Z,101692.00
2022-08-19T20:29:44.275Z,101691.31
2022-08-19T20:32:12.481Z,101698.13
2022-08-19T20:34:41.051Z,101694.25
2022-08-19T20:37:09.758Z,101695.09
2022-08-19T20:39:37.054Z,101699.84
2022-08-19T20:42:03.997Z,101714.88
2022-08-19T20:44:30.544Z,101705.03
2022-08-19T20:47:01.679Z,101694.41
2022-08-19T20:49:28.613Z,101699.16
2022-08-19T20:51:56.805Z,101699.16
2022-08-19T20:54:24.099Z,101692.47
2022-08-19T20:56:51.673Z,101707.50
2022-08-19T20:59:20.049Z,101705.97
2022-08-19T21:01:47.855Z,101708.38
2022-08-19T21:04:14.598Z,101704.03
2022-08-19T21:06:42.251Z,101708.81
2022-08-19T21:09:12.025Z,101707.59
2022-08-19T21:11:39.063Z,101709.56
2022-08-19T21:14:05.965Z,101708.81
2022-08-19T21:16:33.828Z,101705.63
2022-08-19T21:19:00.642Z,101699.66
2022-08-19T21:21:27.569Z,101696.88
2022-08-19T21:23:54.207Z,101694.13
2022-08-19T21:26:20.741Z,101684.28
2022-08-19T21:28:47.409Z,101693.34
2022-08-19T21:31:15.196Z,101689.41
2022-08-19T21:33:41.921Z,101687.81
2022-08-19T21:36:09.187Z,101690.22
2022-08-19T21:38:36.177Z,101682.72
2022-08-19T21:41:06.235Z,101696.97
2022-08-19T21:43:34.496Z,101688.31
2022-08-19T21:46:01.370Z,101695.81
2022-08-19T21:48:28.306Z,101692.25
2022-08-19T21:50:54.851Z,101692.25
2022-08-19T21:53:22.855Z,101690.28
2022-08-19T21:55:53.362Z,101685.97
2022-08-19T21:58:28.293Z,101693.13
2022-08-19T22:00:56.785Z,101693.91
2022-08-19T22:03:24.806Z,101689.59
2022-08-19T22:05:51.350Z,101696.75
2022-08-19T22:08:17.880Z,101691.22
2022-08-19T22:10:44.425Z,101690.78
2022-08-19T22:13:13.445Z,101695.88
2022-08-19T22:15:41.009Z,101701.00
2022-08-19T22:18:07.490Z,101703.41
2022-08-19T22:20:34.083Z,101703.06
2022-08-19T22:23:03.289Z,101701.06
2022-08-19T22:25:33.963Z,101701.06
2022-08-19T22:28:02.439Z,101702.69
2022-08-19T22:30:33.664Z,101705.88
2022-08-19T22:33:04.530Z,101704.69
2022-08-19T22:35:34.516Z,101715.75
2022-08-19T22:38:02.158Z,101701.56
2022-08-19T22:40:30.681Z,101703.13
2022-08-19T22:43:02.096Z,101700.00
2022-08-19T22:45:29.388Z,101706.75
2022-08-19T22:47:56.494Z,101702.00
2022-08-19T22:50:23.789Z,101709.50
2022-08-19T22:52:57.791Z,101711.03
2022-08-19T22:55:26.668Z,101712.25
2022-08-19T22:57:53.912Z,101704.41
2022-08-19T23:00:22.905Z,101711.91
2022-08-19T23:02:51.421Z,101706.81
2022-08-19T23:05:22.000Z,101704.03
2022-08-19T23:07:52.761Z,101696.97
2022-08-19T23:10:26.676Z,101703.28
2022-08-19T23:12:56.715Z,101699.72
2022-08-19T23:15:26.588Z,101695.75
2022-08-19T23:17:55.408Z,101698.88
2022-08-19T23:20:27.148Z,101700.84
2022-08-19T23:22:55.547Z,101705.97
2022-08-19T23:25:25.559Z,101701.22
2022-08-19T23:28:10.678Z,101709.91
2022-08-19T23:30:40.421Z,101711.19
2022-08-19T23:33:18.661Z,101714.75
2022-08-19T23:35:45.176Z,101721.47
2022-08-19T23:38:11.670Z,101719.56
2022-08-19T23:40:38.950Z,101712.06
2022-08-19T23:43:08.114Z,101712.06
2022-08-19T23:45:38.730Z,101718.78
2022-08-19T23:48:06.479Z,101717.66
2022-08-19T23:50:34.013Z,101719.22
2022-08-19T23:53:01.660Z,101716.00
2022-08-19T23:55:32.489Z,101708.94
2022-08-19T23:57:59.831Z,101709.31
